Time;durP1;ratioP1;P1;durP2;ratioP2;P2;SDS_P1;SDS_P2;PMS_P1;PMS_P2;Temp;Humidity;BMP_temperature;BMP_pressure;BME280_temperature;BME280_humidity;BME280_pressure;Samples;Min_cycle;Max_cycle;Signal;HPM_P1;HPM_P2
2023/09/01 00:00:03;;;;;;;6.40;2.60;;;;;;;13.80;100.00;101068.81;4996633;28;20068;-84
2023/09/01 00:02:28;;;;;;;5.50;2.40;;;;;;;13.69;100.00;101053.88;5014462;28;20029;-85
2023/09/01 00:04:55;;;;;;;6.10;2.78;;;;;;;13.74;100.00;101073.19;5001811;28;20481;-85
2023/09/01 00:07:20;;;;;;;4.65;2.47;;;;;;;13.74;100.00;101076.00;5017181;28;20079;-85
2023/09/01 00:09:45;;;;;;;4.25;2.95;;;;;;;13.73;100.00;101078.03;5012974;28;20084;-84
2023/09/01 00:12:11;;;;;;;5.00;2.75;;;;;;;13.71;100.00;101077.59;5012924;28;20052;-85
2023/09/01 00:14:36;;;;;;;3.67;2.80;;;;;;;13.67;100.00;101073.97;4976032;28;21814;-84
2023/09/01 00:17:02;;;;;;;5.82;2.90;;;;;;;13.69;100.00;101070.78;5010631;28;20199;-85
2023/09/01 00:19:27;;;;;;;6.40;2.88;;;;;;;13.66;100.00;101063.09;5015731;28;20033;-85
2023/09/01 00:21:53;;;;;;;4.90;3.28;;;;;;;13.67;100.00;101073.97;5003267;28;20352;-85
2023/09/01 00:24:19;;;;;;;6.03;3.55;;;;;;;13.71;100.00;101079.63;5019550;28;20112;-84
2023/09/01 00:26:44;;;;;;;4.05;2.58;;;;;;;13.69;100.00;101077.19;5020142;28;20038;-86
2023/09/01 00:29:09;;;;;;;4.03;2.78;;;;;;;13.69;100.00;101084.84;5018704;28;20116;-85
2023/09/01 00:31:35;;;;;;;7.45;3.00;;;;;;;13.65;100.00;101084.81;5004180;28;20120;-86
2023/09/01 00:34:00;;;;;;;11.07;5.38;;;;;;;13.67;100.00;101084.41;5005312;28;20142;-83
2023/09/01 00:36:26;;;;;;;5.72;3.92;;;;;;;13.58;100.00;101076.34;5023386;28;20029;-83
2023/09/01 00:38:51;;;;;;;7.15;4.10;;;;;;;13.60;100.00;101090.81;5012914;28;20039;-84
2023/09/01 00:41:16;;;;;;;5.88;3.20;;;;;;;13.57;100.00;101086.75;5003344;28;20515;-84
2023/09/01 00:43:42;;;;;;;6.45;3.60;;;;;;;13.56;100.00;101087.19;5015993;28;20052;-85
2023/09/01 00:46:07;;;;;;;5.68;3.78;;;;;;;13.60;100.00;101100.06;5024768;28;20404;-85
2023/09/01 00:48:33;;;;;;;5.40;3.20;;;;;;;13.54;100.00;101101.63;5009135;28;20124;-85
2023/09/01 00:50:58;;;;;;;7.20;3.20;;;;;;;13.57;100.00;101097.22;5024902;28;20371;-85
2023/09/01 00:53:25;;;;;;;8.57;4.38;;;;;;;13.58;100.00;101093.22;5022635;28;20037;-85
2023/09/01 00:55:52;;;;;;;7.78;3.60;;;;;;;13.57;100.00;101097.22;5005817;28;20482;-86
2023/09/01 00:58:18;;;;;;;4.90;3.95;;;;;;;13.53;100.00;101097.19;5012876;28;20386;-85
2023/09/01 01:00:43;;;;;;;6.68;3.85;;;;;;;13.56;100.00;101096.41;5012793;28;20121;-85
2023/09/01 01:03:10;;;;;;;6.32;3.60;;;;;;;13.56;100.00;101096.41;5025195;28;20046;-85
2023/09/01 01:05:48;;;;;;;5.20;3.00;;;;;;;13.52;100.00;101089.16;5012567;28;20045;-85
2023/09/01 01:08:16;;;;;;;5.45;3.75;;;;;;;13.53;100.00;101097.19;5021787;28;20035;-85
2023/09/01 01:10:52;;;;;;;4.40;3.60;;;;;;;13.52;100.00;101094.78;5000468;28;20134;-85
2023/09/01 01:13:21;;;;;;;5.07;3.92;;;;;;;13.51;100.00;101087.53;5014534;28;20167;-85
2023/09/01 01:15:50;;;;;;;6.43;3.50;;;;;;;13.49;100.00;101089.94;4995979;28;20112;-85
2023/09/01 01:18:18;;;;;;;4.07;3.65;;;;;;;13.46;100.00;101085.91;5000949;28;20029;-84
2023/09/01 01:20:46;;;;;;;7.15;3.85;;;;;;;13.48;100.00;101086.31;4994043;28;20060;-85
2023/09/01 01:23:17;;;;;;;3.85;3.42;;;;;;;13.46;100.00;101080.28;4996775;28;20140;-85
2023/09/01 01:25:51;;;;;;;5.10;3.90;;;;;;;13.47;100.00;101081.09;5022623;28;20434;-85
2023/09/01 01:28:17;;;;;;;6.35;3.60;;;;;;;13.43;100.00;101075.47;5005512;28;20422;-85
2023/09/01 01:30:43;;;;;;;7.55;4.40;;;;;;;13.47;100.00;101079.09;5021526;28;20481;-85
2023/09/01 01:33:28;;;;;;;7.60;3.78;;;;;;;13.46;100.00;101074.66;5019154;28;20600;-85
2023/09/01 01:36:12;;;;;;;4.70;4.13;;;;;;;13.43;100.00;101075.47;4990406;28;20059;-84
2023/09/01 01:38:41;;;;;;;5.80;3.63;;;;;;;13.44;100.00;101081.88;5016716;28;20029;-85
2023/09/01 01:41:13;;;;;;;5.47;3.75;;;;;;;13.38;100.00;101068.19;5019231;28;20072;-86
2023/09/01 01:43:42;;;;;;;;;;;;;;;13.39;100.00;101069.00;5021524;28;20029;-85
2023/09/01 01:46:07;;;;;;;4.68;4.15;;;;;;;13.37;100.00;101074.22;5015091;28;19928;-85
2023/09/01 01:48:40;;;;;;;6.30;3.58;;;;;;;13.34;100.00;101075.00;5003933;28;20033;-85
2023/09/01 01:51:05;;;;;;;6.43;3.95;;;;;;;13.32;100.00;101083.00;5022291;28;20037;-85
2023/09/01 01:53:33;;;;;;;5.35;3.95;;;;;;;13.28;100.00;101073.72;5004786;28;20063;-85
2023/09/01 01:55:58;;;;;;;6.32;3.92;;;;;;;13.29;100.00;101081.00;5019565;28;20029;-85
2023/09/01 01:58:24;;;;;;;6.70;4.38;;;;;;;13.22;100.00;101068.47;5020549;28;20115;-85
2023/09/01 02:00:49;;;;;;;7.75;4.45;;;;;;;13.22;100.00;101078.91;5020090;28;20052;-85
2023/09/01 02:03:14;;;;;;;8.48;3.78;;;;;;;13.05;100.00;101057.91;5019075;28;20061;-85
2023/09/01 02:05:40;;;;;;;5.35;3.42;;;;;;;13.21;100.00;101080.09;5005181;28;20460;-85
2023/09/01 02:08:05;;;;;;;5.88;3.53;;;;;;;13.21;100.00;101078.09;5018655;28;20041;-85
2023/09/01 02:10:31;;;;;;;6.53;4.00;;;;;;;13.20;100.00;101072.88;5010971;28;20026;-85
2023/09/01 02:12:57;;;;;;;6.35;3.80;;;;;;;13.18;100.00;101069.66;4998879;28;20046;-84
2023/09/01 02:15:22;;;;;;;4.78;3.72;;;;;;;13.16;100.00;101072.84;5002113;28;20037;-84
2023/09/01 02:17:48;;;;;;;8.70;4.03;;;;;;;13.15;100.00;101070.41;4995730;28;20107;-85
2023/09/01 02:20:16;;;;;;;7.90;3.45;;;;;;;13.15;100.00;101076.84;4996491;28;20038;-84
2023/09/01 02:22:45;;;;;;;5.63;3.55;;;;;;;13.09;100.00;101072.81;5002783;28;20120;-85
2023/09/01 02:25:12;;;;;;;6.25;4.15;;;;;;;13.13;100.00;101081.25;5004038;28;20420;-85
2023/09/01 02:27:43;;;;;;;9.20;4.20;;;;;;;13.12;100.00;101074.81;4994269;28;20384;-84
2023/09/01 02:30:09;;;;;;;9.60;3.42;;;;;;;13.10;100.00;101085.66;5003897;28;20044;-85
2023/09/01 02:32:36;;;;;;;4.70;4.20;;;;;;;13.08;100.00;101076.78;5004871;28;20033;-85
2023/09/01 02:35:05;;;;;;;7.28;3.80;;;;;;;13.07;100.00;101080.00;5017738;28;20494;-85
2023/09/01 02:37:34;;;;;;;8.02;3.40;;;;;;;13.03;100.00;101071.56;5001485;28;22647;-85
2023/09/01 02:40:00;;;;;;;4.85;3.60;;;;;;;13.02;100.00;101076.34;5006663;28;20030;-85
2023/09/01 02:42:26;;;;;;;3.42;3.08;;;;;;;13.01;100.00;101068.31;5007610;28;20585;-85
2023/09/01 02:44:52;;;;;;;6.80;3.50;;;;;;;13.00;100.00;101069.50;5005677;28;20042;-85
2023/09/01 02:47:17;;;;;;;5.43;3.20;;;;;;;13.00;100.00;101072.31;5004113;28;20405;-85
2023/09/01 02:49:42;;;;;;;7.78;3.63;;;;;;;12.97;100.00;101070.31;5021199;28;20040;-85
2023/09/01 02:52:08;;;;;;;6.95;3.80;;;;;;;12.94;100.00;101071.06;4999921;28;20038;-84
2023/09/01 02:54:33;;;;;;;9.45;4.10;;;;;;;12.93;100.00;101080.69;5004626;28;20528;-85
2023/09/01 02:56:58;;;;;;;5.70;3.67;;;;;;;12.93;100.00;101072.28;5006698;28;20027;-85
2023/09/01 02:59:24;;;;;;;6.75;3.58;;;;;;;12.94;100.00;101071.88;5000162;28;20018;-85
2023/09/01 03:01:49;;;;;;;4.53;3.45;;;;;;;12.88;100.00;101067.84;5011781;28;20025;-85
2023/09/01 03:04:15;;;;;;;5.53;3.50;;;;;;;12.88;100.00;101072.63;5000339;28;20040;-85
2023/09/01 03:06:40;;;;;;;5.35;3.83;;;;;;;12.88;100.00;101075.44;4996044;28;20137;-85
2023/09/01 03:09:09;;;;;;;6.03;3.05;;;;;;;12.89;100.00;101079.88;5003390;28;20076;-85
2023/09/01 03:11:35;;;;;;;5.57;3.78;;;;;;;12.89;100.00;101083.47;5003223;28;20529;-84
2023/09/01 03:14:00;;;;;;;4.80;3.63;;;;;;;12.87;100.00;101071.03;5008606;28;20045;-85
2023/09/01 03:16:28;;;;;;;5.35;4.03;;;;;;;12.80;100.00;101078.19;5020520;28;20524;-85
2023/09/01 03:18:59;;;;;;;4.20;3.80;;;;;;;12.80;100.00;101061.34;4999781;28;20103;-85
2023/09/01 03:21:26;;;;;;;5.88;3.50;;;;;;;12.77;100.00;101055.69;4999811;28;20021;-85
2023/09/01 03:23:52;;;;;;;4.45;3.85;;;;;;;12.78;100.00;101060.91;5021211;28;20021;-83
2023/09/01 03:26:19;;;;;;;5.80;4.00;;;;;;;12.67;100.00;101048.81;5019459;28;20048;-83
2023/09/01 03:28:45;;;;;;;4.93;3.70;;;;;;;12.76;100.00;101063.31;5000789;28;20036;-84
2023/09/01 03:31:11;;;;;;;7.53;3.45;;;;;;;12.77;100.00;101067.72;5018294;28;20029;-84
2023/09/01 03:33:36;;;;;;;6.30;4.32;;;;;;;12.74;100.00;101073.31;5017102;28;20030;-84
2023/09/01 03:36:03;;;;;;;4.43;2.80;;;;;;;12.75;100.00;101072.91;4998376;28;20033;-83
2023/09/01 03:38:28;;;;;;;6.13;3.38;;;;;;;12.70;100.00;101067.66;5005632;28;20049;-83
2023/09/01 03:40:53;;;;;;;7.22;3.45;;;;;;;12.67;100.00;101071.25;5017738;28;20033;-84
2023/09/01 03:43:19;;;;;;;5.68;3.40;;;;;;;12.61;100.00;101058.78;5014875;28;20056;-84
2023/09/01 03:45:44;;;;;;;5.80;3.95;;;;;;;12.65;100.00;101058.78;4998829;28;20121;-84
2023/09/01 03:48:10;;;;;;;6.15;3.50;;;;;;;12.63;100.00;101067.63;5020625;28;20052;-83
2023/09/01 03:50:35;;;;;;;6.30;3.58;;;;;;;12.65;100.00;101058.78;5001175;28;20523;-83
2023/09/01 03:53:01;;;;;;;6.05;3.67;;;;;;;12.58;100.00;101053.91;5024803;28;20097;-83
2023/09/01 03:55:26;;;;;;;5.88;3.47;;;;;;;12.59;100.00;101059.16;5012955;28;20358;-83
2023/09/01 03:57:51;;;;;;;4.93;3.80;;;;;;;12.61;100.00;101067.19;5012234;28;20350;-84
2023/09/01 04:00:17;;;;;;;6.05;3.50;;;;;;;12.59;100.00;101069.59;5011850;28;20033;-84
2023/09/01 04:02:43;;;;;;;4.93;3.22;;;;;;;12.56;100.00;101067.53;5001728;28;20063;-83
2023/09/01 04:05:09;;;;;;;12.80;4.13;;;;;;;12.54;100.00;101059.53;5012356;28;20516;-85
2023/09/01 04:07:34;;;;;;;5.10;3.75;;;;;;;12.53;100.00;101062.72;5018768;28;20116;-83
2023/09/01 04:10:01;;;;;;;7.35;3.95;;;;;;;12.45;100.00;101072.25;5022169;28;20048;-83
2023/09/01 04:12:27;;;;;;;6.38;4.43;;;;;;;12.45;100.00;101070.25;5023798;28;20054;-83
2023/09/01 04:14:52;;;;;;;7.20;4.38;;;;;;;12.50;100.00;101077.50;4994037;28;20053;-83
2023/09/01 04:17:17;;;;;;;8.23;4.28;;;;;;;12.47;100.00;101075.47;5023420;28;20056;-83
2023/09/01 04:19:47;;;;;;;10.77;3.58;;;;;;;12.47;100.00;101081.09;5009020;28;20052;-83
2023/09/01 04:22:12;;;;;;;6.38;3.92;;;;;;;12.43;100.00;101083.06;5026522;28;20028;-83
2023/09/01 04:24:38;;;;;;;8.55;4.43;;;;;;;12.39;100.00;101068.97;5009047;28;20033;-83
2023/09/01 04:27:03;;;;;;;7.05;3.92;;;;;;;12.38;100.00;101061.75;5002434;28;20686;-83
2023/09/01 04:29:29;;;;;;;6.05;4.85;;;;;;;12.44;100.00;101070.63;5009548;28;20041;-83
2023/09/01 04:31:54;;;;;;;11.18;4.20;;;;;;;12.41;100.00;101066.59;5027365;28;20028;-84
2023/09/01 04:34:20;;;;;;;7.93;4.45;;;;;;;12.41;100.00;101067.41;5023491;28;20100;-83
2023/09/01 04:36:48;;;;;;;7.88;4.45;;;;;;;12.40;100.00;101068.59;5019761;28;20031;-84
2023/09/01 04:39:15;;;;;;;7.63;4.95;;;;;;;12.40;100.00;101076.22;5024022;28;20033;-83
2023/09/01 04:41:40;;;;;;;6.47;4.05;;;;;;;12.39;100.00;101075.38;5003651;28;20618;-83
2023/09/01 04:44:05;;;;;;;6.57;4.93;;;;;;;12.41;100.00;101081.44;5000576;28;20052;-84
2023/09/01 04:46:31;;;;;;;6.30;3.80;;;;;;;12.38;100.00;101087.81;5018527;28;20032;-83
2023/09/01 04:48:56;;;;;;;5.10;3.80;;;;;;;12.41;100.00;101087.03;4997647;28;20072;-83
2023/09/01 04:51:21;;;;;;;6.72;4.63;;;;;;;12.40;100.00;101087.44;5023835;28;20108;-84
2023/09/01 04:53:47;;;;;;;8.75;5.00;;;;;;;12.43;100.00;101083.84;5017345;28;20726;-83
2023/09/01 04:56:12;;;;;;;7.63;5.30;;;;;;;12.43;100.00;101085.88;5023756;28;20163;-84
2023/09/01 04:58:37;;;;;;;8.70;5.43;;;;;;;12.41;100.00;101075.81;5017547;28;20025;-83
2023/09/01 05:01:03;;;;;;;5.53;4.57;;;;;;;12.39;100.00;101081.00;5024598;28;20034;-83
2023/09/01 05:03:29;;;;;;;6.25;4.40;;;;;;;12.37;100.00;101072.16;5020537;28;20032;-83
2023/09/01 05:05:55;;;;;;;7.57;5.65;;;;;;;12.46;100.00;101087.88;5029223;28;20029;-83
2023/09/01 05:08:21;;;;;;;9.82;5.50;;;;;;;12.43;100.00;101083.84;5006883;28;20033;-83
2023/09/01 05:10:46;;;;;;;7.68;5.13;;;;;;;12.45;100.00;101073.06;5021006;28;20032;-83
2023/09/01 05:13:12;;;;;;;7.05;5.25;;;;;;;12.46;100.00;101073.84;5000724;28;20434;-84
2023/09/01 05:15:37;;;;;;;6.10;4.68;;;;;;;12.50;100.00;101091.53;5008010;28;20132;-83
2023/09/01 05:18:03;;;;;;;8.93;5.05;;;;;;;12.52;100.00;101089.16;4996591;28;20037;-83
2023/09/01 05:20:28;;;;;;;10.10;5.93;;;;;;;12.50;100.00;101085.94;5018536;28;20160;-85
2023/09/01 05:22:53;;;;;;;11.15;5.57;;;;;;;12.51;100.00;101093.97;5005369;28;20530;-83
2023/09/01 05:25:19;;;;;;;9.20;5.30;;;;;;;12.53;100.00;101093.59;4999795;28;20030;-83
2023/09/01 05:27:44;;;;;;;11.90;6.22;;;;;;;12.56;100.00;101096.41;5005451;28;20567;-83
2023/09/01 05:30:10;;;;;;;8.88;6.28;;;;;;;12.57;100.00;101106.47;5004537;28;20029;-83
2023/09/01 05:32:36;;;;;;;11.65;6.35;;;;;;;12.57;100.00;101094.44;5005364;28;20037;-83
2023/09/01 05:35:01;;;;;;;13.23;6.43;;;;;;;12.53;100.00;101099.22;5000530;28;20498;-84
2023/09/01 05:37:27;;;;;;;11.05;6.47;;;;;;;12.59;100.00;101108.91;5004186;28;20866;-85
2023/09/01 05:39:52;;;;;;;11.02;5.78;;;;;;;12.56;100.00;101104.03;4997541;28;22703;-85
2023/09/01 05:42:17;;;;;;;10.40;6.38;;;;;;;12.61;100.00;101103.69;5015960;28;20022;-84
2023/09/01 05:44:43;;;;;;;8.15;5.60;;;;;;;12.63;100.00;101106.09;5020739;28;20117;-84
2023/09/01 05:47:08;;;;;;;10.43;5.97;;;;;;;12.63;100.00;101095.69;5005133;28;20024;-84
2023/09/01 05:49:34;;;;;;;10.57;5.50;;;;;;;12.63;100.00;101104.13;5005147;28;20033;-84
2023/09/01 05:52:01;;;;;;;10.10;6.20;;;;;;;12.69;100.00;101099.78;5005642;28;20037;-84
2023/09/01 05:54:27;;;;;;;10.63;6.57;;;;;;;12.69;100.00;101105.38;5003684;28;20041;-85
2023/09/01 05:56:52;;;;;;;12.95;6.43;;;;;;;12.67;100.00;101110.59;5003729;28;20034;-84
2023/09/01 05:59:18;;;;;;;10.73;6.78;;;;;;;12.72;100.00;101103.81;5001289;28;20026;-86
2023/09/01 06:01:44;;;;;;;10.30;7.05;;;;;;;12.80;100.00;101109.09;5005281;28;20072;-86
2023/09/01 06:04:10;;;;;;;9.25;6.38;;;;;;;12.77;100.00;101101.41;5004741;28;20025;-87
2023/09/01 06:06:36;;;;;;;10.35;6.75;;;;;;;12.76;100.00;101105.44;5010621;28;20504;-86
2023/09/01 06:09:05;;;;;;;10.60;6.03;;;;;;;12.76;100.00;101099.81;5003909;28;20026;-86
2023/09/01 06:11:31;;;;;;;10.45;7.07;;;;;;;12.75;100.00;101097.41;5005004;28;20061;-86
2023/09/01 06:13:57;;;;;;;13.00;8.07;;;;;;;12.81;100.00;101102.25;5018161;28;20579;-86
2023/09/01 06:16:22;;;;;;;11.50;7.03;;;;;;;12.72;100.00;101107.41;5020786;28;20424;-86
2023/09/01 06:18:48;;;;;;;15.23;6.75;;;;;;;12.72;100.00;101106.59;5005179;28;20026;-86
2023/09/01 06:21:15;;;;;;;11.80;7.13;;;;;;;12.66;100.00;101100.53;5026152;28;20074;-85
2023/09/01 06:23:44;;;;;;;14.10;8.05;;;;;;;12.71;100.00;101108.63;5006431;28;20025;-86
2023/09/01 06:26:17;;;;;;;14.57;9.15;;;;;;;12.82;100.00;101109.50;5006272;28;20034;-85
2023/09/01 06:28:44;;;;;;;13.98;8.27;;;;;;;12.78;100.00;101102.25;4989772;28;20038;-84
2023/09/01 06:31:09;;;;;;;4.43;2.80;;;;;;;15.11;100.00;101114.53;5016077;28;20120;-89
2023/09/01 06:33:42;;;;;;;7.57;3.22;;;;;;;15.95;100.00;101119.63;5011292;28;20136;-90
2023/09/01 06:36:10;;;;;;;18.52;8.73;;;;;;;14.53;100.00;101118.50;5004930;28;20037;-88
2023/09/01 06:38:36;;;;;;;16.02;8.80;;;;;;;13.83;100.00;101110.22;5005735;28;20099;-88
2023/09/01 06:41:03;;;;;;;16.42;9.80;;;;;;;13.51;100.00;101118.47;5004361;28;20048;-88
2023/09/01 06:43:29;;;;;;;13.60;8.60;;;;;;;13.37;100.00;101107.97;5006785;28;20029;-88
2023/09/01 06:45:54;;;;;;;12.60;7.20;;;;;;;13.25;100.00;101088.56;5023080;28;20769;-87
2023/09/01 06:48:20;;;;;;;19.88;9.57;;;;;;;13.31;100.00;101093.44;5007557;28;20052;-88
2023/09/01 06:50:45;;;;;;;16.88;9.15;;;;;;;13.37;100.00;101108.75;5006830;28;20116;-88
2023/09/01 06:53:11;;;;;;;13.27;7.93;;;;;;;13.29;100.00;101098.66;5034357;28;20555;-88
2023/09/01 06:55:36;;;;;;;17.00;9.15;;;;;;;13.30;100.00;101099.47;5022806;28;20056;-88
2023/09/01 06:58:03;;;;;;;14.90;9.02;;;;;;;13.29;100.00;101097.84;5007903;28;20525;-88
2023/09/01 07:00:28;;;;;;;19.25;10.15;;;;;;;13.39;100.00;101111.19;5011230;28;20066;-88
2023/09/01 07:02:53;;;;;;;19.67;9.25;;;;;;;13.29;100.00;101092.25;4998754;28;20132;-87
2023/09/01 07:05:19;;;;;;;18.65;10.63;;;;;;;13.44;100.00;101113.63;5027297;28;20409;-88
2023/09/01 07:07:44;;;;;;;20.67;10.45;;;;;;;13.43;100.00;101097.97;5028291;28;20025;-88
2023/09/01 07:10:10;;;;;;;19.17;9.75;;;;;;;13.53;100.00;101105.63;5004496;28;20029;-88
2023/09/01 07:12:35;;;;;;;15.45;9.38;;;;;;;13.51;100.00;101113.66;4999562;28;21199;-87
2023/09/01 07:15:02;;;;;;;14.93;10.18;;;;;;;13.48;100.00;101100.38;5030351;28;20053;-88
2023/09/01 07:17:28;;;;;;;23.10;10.20;;;;;;;13.58;100.00;101110.91;4999905;28;20401;-88
2023/09/01 07:19:53;;;;;;;22.05;11.15;;;;;;;13.60;100.00;101114.13;5016936;28;20037;-89
2023/09/01 07:22:19;;;;;;;17.20;10.38;;;;;;;13.68;100.00;101109.34;4996828;28;20480;-88
2023/09/01 07:24:44;;;;;;;17.05;10.10;;;;;;;13.70;100.00;101109.72;5011508;28;20032;-89
2023/09/01 07:27:09;;;;;;;22.02;10.30;;;;;;;13.78;100.00;101107.78;5022016;28;20427;-89
2023/09/01 07:29:35;;;;;;;18.80;11.40;;;;;;;13.81;100.00;101101.38;5022447;28;20394;-87
2023/09/01 07:32:00;;;;;;;20.80;10.35;;;;;;;13.74;100.00;101085.25;5023174;28;20033;-90
2023/09/01 07:34:26;;;;;;;22.20;12.23;;;;;;;13.80;100.00;101091.31;5026550;28;20079;-90
2023/09/01 07:36:52;;;;;;;19.25;10.85;;;;;;;13.87;100.00;101105.44;5002435;28;20503;-89
2023/09/01 07:39:18;;;;;;;19.08;11.00;;;;;;;13.91;100.00;101099.78;5024702;28;20033;-89
2023/09/01 07:41:46;;;;;;;18.83;10.75;;;;;;;13.98;100.00;101102.66;5020819;28;20505;-89
2023/09/01 07:44:16;;;;;;;19.80;11.27;;;;;;;13.95;100.00;101101.41;5008597;28;20037;-89
2023/09/01 07:46:45;;;;;;;20.35;10.93;;;;;;;14.08;100.00;101115.94;5022372;28;20033;-90
2023/09/01 07:49:10;;;;;;;18.52;11.18;;;;;;;13.97;100.00;101110.28;5027159;28;20535;-90
2023/09/01 07:51:37;;;;;;;22.23;10.95;;;;;;;14.15;100.00;101120.81;5015834;28;20029;-89
2023/09/01 07:54:03;;;;;;;25.25;12.48;;;;;;;14.18;100.00;101125.63;5027923;28;20044;-89
2023/09/01 07:56:29;;;;;;;18.83;10.43;;;;;;;14.23;100.00;101114.81;5007969;28;20473;-89
2023/09/01 07:58:54;;;;;;;20.65;11.50;;;;;;;14.29;100.00;101120.03;5011577;28;20033;-89
2023/09/01 08:01:20;;;;;;;22.85;10.60;;;;;;;14.30;100.00;101116.81;5018072;28;20404;-89
2023/09/01 08:03:45;;;;;;;20.83;11.13;;;;;;;14.30;100.00;101116.81;5004022;28;20036;-89
2023/09/01 08:06:10;;;;;;;19.92;11.40;;;;;;;14.39;100.00;101120.06;5006231;28;20552;-90
2023/09/01 08:08:36;;;;;;;19.95;10.80;;;;;;;14.42;100.00;101124.13;5005009;28;20037;-90
2023/09/01 08:11:01;;;;;;;15.40;9.75;;;;;;;14.41;100.00;101106.38;5003727;28;20067;-91
2023/09/01 08:13:27;;;;;;;18.42;10.43;;;;;;;14.54;100.00;101126.53;4999933;28;20058;-90
2023/09/01 08:15:52;;;;;;;18.27;10.55;;;;;;;14.62;100.00;101116.13;5002495;28;20246;-88
2023/09/01 08:18:18;;;;;;;17.98;10.07;;;;;;;14.69;100.00;101133.03;5000168;28;20040;-87
2023/09/01 08:20:44;;;;;;;16.05;10.15;;;;;;;14.71;100.00;101136.25;5003550;28;20040;-87
2023/09/01 08:23:10;;;;;;;5.30;3.25;;;;;;;16.01;100.00;101140.56;5011252;28;20034;-85
2023/09/01 08:25:37;;;;;;;7.57;3.63;;;;;;;17.18;100.00;101147.94;5004181;28;20502;-83
2023/09/01 08:28:03;;;;;;;6.88;3.55;;;;;;;17.58;100.00;101145.56;5002314;28;20109;-84
2023/09/01 08:30:29;;;;;;;9.18;3.78;;;;;;;17.80;100.00;101157.47;5008646;28;20482;-83
2023/09/01 08:32:54;;;;;;;7.25;3.60;;;;;;;17.80;100.00;101137.66;4994927;28;20044;-83
2023/09/01 08:35:20;;;;;;;7.20;3.95;;;;;;;17.98;100.00;101151.63;5012319;28;20037;-82
2023/09/01 08:37:45;;;;;;;10.48;5.30;;;;;;;17.81;100.00;101131.53;4999134;28;20030;-84
2023/09/01 08:40:11;;;;;;;9.40;5.03;;;;;;;17.82;100.00;101138.03;5028160;28;20037;-84
2023/09/01 08:42:48;;;;;;;7.40;4.65;;;;;;;17.72;100.00;101150.28;5003664;28;20033;-84
2023/09/01 08:45:14;;;;;;;7.93;4.05;;;;;;;17.72;100.00;101145.41;5007061;28;20029;-84
2023/09/01 08:47:45;;;;;;;14.13;5.32;;;;;;;17.35;100.00;101149.84;5009775;28;20036;-84
2023/09/01 08:50:13;;;;;;;12.25;5.78;;;;;;;17.21;100.00;101138.66;5024209;28;20065;-85
2023/09/01 08:52:42;;;;;;;12.07;5.60;;;;;;;17.25;100.00;101133.75;5001881;28;20032;-82
2023/09/01 08:55:07;;;;;;;9.48;5.07;;;;;;;17.45;100.00;101125.47;5007151;28;20018;-81
2023/09/01 08:57:33;;;;;;;11.75;6.10;;;;;;;17.32;100.00;101124.41;5006407;28;20056;-82
2023/09/01 08:59:58;;;;;;;7.90;4.72;;;;;;;17.60;100.00;101143.94;5004851;28;20482;-82
2023/09/01 09:02:24;;;;;;;6.88;4.85;;;;;;;17.87;100.00;101134.75;5028204;28;20041;-82
2023/09/01 09:04:49;;;;;;;9.02;5.00;;;;;;;18.14;100.00;101148.22;5010139;28;20026;-81
2023/09/01 09:07:20;;;;;;;12.10;5.13;;;;;;;18.12;100.00;101142.97;5007420;28;20038;-82
2023/09/01 09:09:54;;;;;;;9.43;5.13;;;;;;;17.91;100.00;101124.19;5003784;28;20036;-83
2023/09/01 09:12:33;;;;;;;12.50;4.88;;;;;;;18.02;100.00;101129.72;5008807;28;20036;-81
2023/09/01 09:14:58;;;;;;;6.97;4.53;;;;;;;17.48;100.00;101136.75;5002567;28;20486;-82
2023/09/01 09:17:40;;;;;;;11.75;5.10;;;;;;;17.75;100.00;101140.94;5000762;28;20040;-83
2023/09/01 09:20:06;;;;;;;8.35;4.45;;;;;;;17.95;100.00;101147.63;5018733;28;20462;-83
2023/09/01 09:22:48;;;;;;;11.43;6.30;;;;;;;17.68;100.00;101156.78;5007186;28;20034;-83
2023/09/01 09:25:34;;;;;;;8.00;4.82;;;;;;;17.79;100.00;101150.19;5002216;28;20034;-83
2023/09/01 09:28:11;;;;;;;11.40;5.80;;;;;;;17.60;100.00;101158.09;5001189;28;20037;-83
2023/09/01 09:30:36;;;;;;;8.98;4.80;;;;;;;17.43;100.00;101153.38;5000606;28;20354;-82
2023/09/01 09:33:06;;;;;;;14.50;5.90;;;;;;;17.25;100.00;101154.34;5003658;28;20102;-83
2023/09/01 09:35:35;;;;;;;11.77;5.88;;;;;;;17.68;100.00;101156.78;5007282;28;20449;-83
2023/09/01 09:38:01;;;;;;;13.48;6.93;;;;;;;17.22;100.00;101155.22;5002813;28;20045;-84
2023/09/01 09:40:27;;;;;;;11.65;7.25;;;;;;;17.10;100.00;101154.88;5005927;28;20038;-84
2023/09/01 09:42:57;;;;;;;12.65;5.63;;;;;;;17.37;100.00;101150.22;5000564;28;20044;-84
2023/09/01 09:45:29;;;;;;;7.65;3.97;;;;;;;17.83;100.00;101165.13;5012990;28;20718;-83
2023/09/01 09:48:05;;;;;;;14.27;6.55;;;;;;;17.56;100.00;101143.16;5016803;28;20045;-83
2023/09/01 09:50:31;;;;;;;10.07;4.78;;;;;;;18.13;100.00;101157.91;5018987;28;20037;-82
2023/09/01 09:53:04;;;;;;;8.50;4.43;;;;;;;18.42;100.00;101176.16;5003415;28;20037;-84
2023/09/01 09:55:32;;;;;;;12.55;6.00;;;;;;;17.78;100.00;101176.91;5019968;28;20026;-82
2023/09/01 09:58:07;;;;;;;9.93;5.05;;;;;;;17.75;100.00;101172.06;4999625;28;20223;-83
2023/09/01 10:00:40;;;;;;;7.93;4.07;;;;;;;18.16;100.00;101174.88;5001305;28;21112;-83
2023/09/01 10:03:07;;;;;;;10.50;4.22;;;;;;;18.19;100.00;101178.88;5006834;28;20034;-83
2023/09/01 10:05:33;;;;;;;8.90;4.55;;;;;;;18.44;100.00;101185.03;5018663;28;20455;-83
2023/09/01 10:08:06;;;;;;;7.00;3.83;;;;;;;18.52;100.00;101182.13;5001380;28;20034;-84
2023/09/01 10:10:34;;;;;;;9.20;4.70;;;;;;;18.21;100.00;101187.78;5001745;28;20037;-82
2023/09/01 10:13:02;;;;;;;9.02;3.63;;;;;;;18.47;100.00;101191.91;5017889;28;20038;-83
2023/09/01 10:15:30;;;;;;;14.05;5.30;;;;;;;17.74;100.00;101182.59;4998596;28;20034;-84
2023/09/01 10:17:58;;;;;;;9.15;5.20;;;;;;;17.57;100.00;101190.03;4997259;28;21006;-84
2023/09/01 10:20:23;;;;;;;10.60;5.25;;;;;;;17.39;100.00;101180.91;5004392;28;20057;-83
2023/09/01 10:22:49;;;;;;;8.13;4.55;;;;;;;17.70;100.00;101183.88;5004343;28;20064;-83
2023/09/01 10:25:17;;;;;;;11.35;6.07;;;;;;;17.99;100.00;101184.41;4998718;28;20030;-83
2023/09/01 10:28:10;;;;;;;10.70;4.80;;;;;;;17.65;100.00;101188.75;4997074;28;20505;-84
2023/09/01 10:30:40;;;;;;;8.98;4.43;;;;;;;17.93;100.00;101184.06;5002367;28;20023;-83
2023/09/01 10:33:26;;;;;;;9.80;4.65;;;;;;;17.60;100.00;101166.59;5004470;28;20022;-83
2023/09/01 10:35:54;;;;;;;14.63;6.18;;;;;;;17.24;100.00;101183.88;5006165;28;20493;-83
2023/09/01 10:38:21;;;;;;;11.88;4.07;;;;;;;18.00;100.00;101195.28;5018658;28;20060;-83
2023/09/01 10:40:47;;;;;;;10.95;4.35;;;;;;;17.82;100.00;101189.00;5020085;28;20037;-83
2023/09/01 10:43:33;;;;;;;9.10;4.75;;;;;;;17.96;100.00;101183.22;5002516;28;20033;-85
2023/09/01 10:46:14;;;;;;;11.95;4.15;;;;;;;18.39;100.00;101187.56;5009421;28;20166;-85
2023/09/01 10:48:59;;;;;;;8.90;4.20;;;;;;;18.33;100.00;101194.91;4996391;28;20041;-86
2023/09/01 10:51:27;;;;;;;12.73;5.43;;;;;;;18.39;100.00;101193.22;5013703;28;20037;-85
2023/09/01 10:53:55;;;;;;;9.77;4.93;;;;;;;18.55;100.00;101195.44;5020178;28;20036;-85
2023/09/01 10:56:21;;;;;;;13.02;5.25;;;;;;;18.43;100.00;101200.44;5002309;28;20599;-85
2023/09/01 10:58:48;;;;;;;11.93;5.05;;;;;;;18.52;100.00;101204.81;5013688;28;20038;-85
2023/09/01 11:01:30;;;;;;;11.25;6.95;;;;;;;18.46;100.00;101204.47;4991595;28;20414;-84
2023/09/01 11:04:16;;;;;;;;;;;;;;;18.43;100.00;101211.00;5004291;28;20025;-84
2023/09/01 11:06:56;;;;;;;12.88;4.68;;;;;;;18.18;100.00;101199.97;4994611;28;19928;-85
2023/09/01 11:09:45;;;;;;;9.05;4.78;;;;;;;18.28;100.00;101193.38;5001290;28;20025;-85
2023/09/01 11:12:12;;;;;;;13.80;4.90;;;;;;;18.35;100.00;101198.94;4993802;28;20304;-84
2023/09/01 11:14:52;;;;;;;8.38;4.40;;;;;;;18.38;100.00;101198.06;4998718;28;20034;-85